jy135.com alexa rank chart, jy135.com alexa rank daily changes

jy135.com alexa rank chart, jy135.com alexa rank daily changes

jy135.com
Actual rank:
55 467

RANK HISTORY

Date Rank Diff
2018/05/23 55 467 -19 468
2018/05/21 74 935 -8 830
2018/05/20 83 765 -1 939
2018/05/19 85 704 +3 357
2018/05/18 82 347 -6 527
2018/05/17 88 874 +5 350
2018/05/16 83 524 +18 692
2018/05/15 64 832 -2 696
2018/05/14 67 528 -19 397
2018/05/12 86 925 +2 805
2018/05/11 84 120 -17 712
2018/05/10 101 832 +51 824
2018/05/09 50 008 -40 546
2018/05/08 90 554 +14 443
2018/05/07 76 111 +1 232
2018/05/06 74 879 -10 599
2018/05/05 85 478 +47 828
2018/05/04 37 650 -48 147
2018/05/03 85 797 +20 538
2018/05/02 65 259 +2 317
2018/05/01 62 942 +6 418
2018/04/30 56 524 +3 847
2018/04/29 52 677 +16 224
2018/04/28 36 453 -28 969
2018/04/27 65 422 -657 310
2018/04/26 722 732 +637 748
2018/04/25 84 984 +13 461
2018/04/24 71 523 +6 101
2018/04/23 65 422 -28 711
2018/04/22 94 133 +3 614
2018/04/21 90 519 +5 950
2018/04/19 84 569 +22 146
2018/04/17 62 423 -11 708
2018/04/16 74 131 +25 183
2018/04/15 48 948 -43 964
2018/04/14 92 912 +52 430
2018/04/13 40 482 +1 654
2018/04/12 38 828 -68 160
2018/04/11 106 988 +26 736
2018/04/10 80 252 -3 695
2018/04/09 83 947 +17 006
2018/04/08 66 941 -8 444
2018/04/07 75 385 -27 734
2018/04/06 103 119 +19 094
2018/04/05 84 025 +54 452
2018/04/04 29 573 -14 439
2018/04/02 44 012 -16 230
2018/04/01 60 242 +2 698
2018/03/30 57 544 +1 646
2018/03/29 55 898 -50 350
2018/03/28 106 248 +44 218
2018/03/27 62 030 -14 895
2018/03/26 76 925 -22 849
2018/03/25 99 774 +8 971
2018/03/24 90 803

WIDGET FOR YOUR SITE

DOMAINS WITH THE NEAREST RANK

Domain Rank
statsbiblioteket.dk 55 462
blinn.edu 55 463
skywayinvestgroup.com 55 464
speedweek.com 55 465
naisho.site 55 466
jy135.com 55 467
direktno.hr 55 468
4teachers.de 55 469
gunadarma.ac.id 55 470
natureetdecouvertes.com 55 471
stabmag.com 55 472

DOMAINS WITH THE NEAREST RANK BY TLD .com

Domain Rank
brandonsanderson.com 55 452
meteox.com 55 455
1classtube.com 55 460
skywayinvestgroup.com 55 464
speedweek.com 55 465
jy135.com 55 467
natureetdecouvertes.com 55 471
stabmag.com 55 472
leesa.com 55 474
dosenbahasa.com 55 479
zogsports.com 55 483